Station info - map view · info · telemetry · weather · raw · status · beacons · messages · bulletins · browse · moving · my account
Callsign, ship name or locator: Clear       
It is possible to search using wildcards (*?) after a prefix. Example: OH*
APRS station N21PS - show graphs
Map loading...
Comment: WA0BSH
Mic-E message: En route
Location: 32°26.61' N 97°48.87' W - locator EM12CK26GK - show map - static map
1.2 miles West bearing 275° from Granbury, Hood County, Texas, United States [?]
3.3 miles South bearing 160° from Oak Trail Shores, Hood County, Texas, United States
34.7 miles Southwest bearing 236° from Fort Worth, Tarrant County, Texas, United States
63.1 miles West bearing 248° from Dallas, Dallas County, Texas, United States
Last position: 2018-04-19 20:12:23 EDT (1d 21h9m ago)
2018-04-19 19:12:23 CDT local time at Granbury, United States [?]
Altitude: 764 ft
Course: 51°
Speed: 8 MPH
Last path: N21PS>SR2V6Q via WD5GIC-3*,WIDE2-1,qAR,KB5ASY-10 (good)
Positions stored: 31898
Packet rate: 66 seconds between packets on average during 3309 seconds.
Stations near current position of N21PS - show more
callsign distance last heard - EDT      callsign distance last heard - EDT
N917EN0.5 miles 320°2018-04-20 19:05:40 K5NOT-30.5 miles 170°2018-04-19 12:49:48
W5HCT B0.6 miles 81°2018-04-21 17:17:29 W5HCT-B0.6 miles 81°2018-04-21 17:17:14
KG5CCI-51.2 miles 166°2018-04-04 20:48:17 K1DRP AD1.4 miles 234°2018-04-21 17:04:33
K1DRP B1.4 miles 234°2018-04-21 17:04:33 K1DRP-B1.4 miles 234°2018-04-21 17:04:19
WD5GIC-32.7 miles 183°2018-04-21 17:19:52 W5PFG-72.9 miles 153°2018-04-12 18:36:09
WB5JC-93.0 miles 152°2018-04-20 19:42:07 AC5CP3.7 miles 152°2018-04-21 14:18:44
EW93053.8 miles 115°2018-04-21 17:20:12 DW41264.1 miles 65°2018-04-21 17:18:47
KB5SMY4.1 miles 66°2018-04-21 17:12:10 KB5SQG-54.6 miles 333°2018-04-21 17:00:02
KD5FCQ-94.6 miles 61°2018-04-21 03:32:52 N0JY-44.6 miles 61°2018-04-21 16:51:47
KB5SQG-104.6 miles 333°2018-04-21 12:23:02 KB5SQG4.6 miles 333°2018-04-21 17:12:17
Stations which heard N21PS directly on radio –
callsign pkts first heard - EDT last heard longest (tx => rx) longest at - EDT
KM5HG 6 2018-04-19 18:53:37 2018-04-19 19:02:51 EM15UM > EM26DG 61.6 miles 33° 2018-04-19 19:02:51
SOKC 2 2018-04-19 19:12:06 2018-04-19 19:14:10 EM14RX > EM15GJ 59.1 miles 297° 2018-04-19 19:14:10
WB5QLD 1 2018-04-19 19:59:19 2018-04-19 19:59:19 EM12FW > EM12JU 23.5 miles 107° 2018-04-19 19:59:19
K5FTW-5 2 2018-04-19 19:50:46 2018-04-19 20:10:23 EM13HI > EM12IR 44.4 miles 176° 2018-04-19 19:50:46
W5NGU-4 6 2018-04-19 19:17:14 2018-04-19 19:43:55 EM14QU > EM13HL 104.4 miles 205° 2018-04-19 19:17:14
W5LHG 2 2018-04-19 19:13:07 2018-04-19 19:21:20 EM15RB > EM15DD 64.8 miles 276° 2018-04-19 19:13:07
WHTNY 1 2018-04-19 18:25:54 2018-04-19 18:25:54 EM27GC > EM36AJ 98.8 miles 119° 2018-04-19 18:25:54
BRTLVL 1 2018-04-19 19:05:57 2018-04-19 19:05:57 EM15TI > EM16XP 89.6 miles 11° 2018-04-19 19:05:57
WD5GIC-3 2 2018-04-19 20:09:36 2018-04-19 20:12:23 EM12CL > EM12CJ 5.8 miles 184° 2018-04-19 20:09:36
KG5IE-2 1 2018-04-19 20:10:31 2018-04-19 20:10:31 EM12CL > EM12CQ 16.2 miles 4° 2018-04-19 20:10:31
KD5UIG-10 4 2018-04-19 19:41:52 2018-04-19 19:53:10 EM13JR > EM13JG 32.3 miles 182° 2018-04-19 19:41:52
K5UTD 11 2018-04-19 19:45:58 2018-04-19 20:05:29 EM12DP > EM12OX 60.2 miles 68° 2018-04-19 20:05:29
BASHOR 10 2018-04-19 17:35:35 2018-04-19 17:55:05 EM28OJ > EM29MC 48.7 miles 348° 2018-04-19 17:55:05
LSBRG 14 2018-04-19 17:48:55 2018-04-19 18:22:49 EM27HF > EM28QN 101.6 miles 24° 2018-04-19 18:22:49
KEETON 1 2018-04-19 19:08:00 2018-04-19 19:08:00 EM15SG > EM26DH 82.0 miles 29° 2018-04-19 19:08:00
STLWTR 1 2018-04-19 19:15:12 2018-04-19 19:15:12 EM14QW > EM16JC 86.8 miles 337° 2018-04-19 19:15:12
K5MJD-8 3 2018-04-19 19:25:27 2018-04-19 19:29:33 EM14OL > EM23BP 78.0 miles 138° 2018-04-19 19:25:27
AUBURN 12 2018-04-19 17:40:43 2018-04-19 18:04:20 EM28MA > EM28CX 80.2 miles 326° 2018-04-19 18:04:20
SKITOK 1 2018-04-19 19:03:54 2018-04-19 19:03:54 EM15UL > EM16XJ 65.2 miles 15° 2018-04-19 19:03:54
MOUNDS 2 2018-04-19 19:11:06 2018-04-19 19:22:24 EM14OO > EM15WU 92.0 miles 22° 2018-04-19 19:22:24
KF5OEB-1 1 2018-04-19 19:39:50 2018-04-19 19:39:50 EM13KT > EM13QQ 33.4 miles 107° 2018-04-19 19:39:50
KB5ASY-10 6 2018-04-19 19:40:50 2018-04-19 20:07:32 EM13JS > EM12HP 78.9 miles 189° 2018-04-19 19:40:50
KB0DXS 4 2018-04-19 18:11:31 2018-04-19 18:20:46 EM27KR > EM26RU 67.5 miles 150° 2018-04-19 18:11:31
NORMAN 2 2018-04-19 19:16:13 2018-04-19 19:20:19 EM14PR > EM15HF 49.8 miles 314° 2018-04-19 19:20:19
AE5TC-14 1 2018-04-19 20:01:23 2018-04-19 20:01:23 EM12EU > EM12HR 16.7 miles 116° 2018-04-19 20:01:23
KF5VIA-1 4 2018-04-19 18:45:24 2018-04-19 18:52:35 EM26BG > EM16WC 17.3 miles 227° 2018-04-19 18:45:24
KD0YUJ 10 2018-04-18 17:58:12 2018-04-19 17:34:33 EM29TF > EM29UL 17.7 miles 6° 2018-04-19 17:34:33
JOPLIN 1 2018-04-19 17:53:03 2018-04-19 17:53:03 EM28PL > EM27TC 96.7 miles 170° 2018-04-19 17:53:03
NORKC 1 2018-04-18 17:58:01 2018-04-18 17:58:01 EM29TF > EM29RD 12.3 miles 248° 2018-04-18 17:58:01
KE9XB-10 20 2018-04-19 18:16:39 2018-04-19 18:59:47 EM15VP > EM26BR 78.1 miles 14° 2018-04-19 18:59:47
DEPEW 4 2018-04-19 18:57:45 2018-04-19 19:19:18 EM14PS > EM15RT 72.4 miles 6° 2018-04-19 19:19:18
KF5VDY-10 8 2018-04-19 18:37:11 2018-04-19 18:46:25 EM26DP > EM26DI 20.3 miles 184° 2018-04-19 18:37:11
N0UEA 4 2018-04-19 17:56:07 2018-04-19 18:07:25 EM27LV > EM38GH 92.7 miles 71° 2018-04-19 18:07:25
KE5ASA-10 6 2018-04-19 19:31:36 2018-04-19 19:37:46 EM14ME > EM04TB 81.7 miles 264° 2018-04-19 19:31:36
KC0QLU-2 2 2018-04-18 18:09:40 2018-04-19 17:43:47 EM28RU > EM29OT 66.5 miles 347° 2018-04-19 17:43:47

Only position packets which were originated by the station are shown here. The range statistics show some extra long hops, because some digipeaters do not correctly add themselves to the digipeater path. Please check the raw packets.
About this site
This page shows real-time information collected from the Automatic Position Reporting System Internet network (APRS-IS). APRS is used by amateur (ham) radio operators to transmit real-time position information, weather data, telemetry and messages over the radio. A vehicle equipped with a GPS receiver, a VHF transmitter or HF transceiver and a small computer device called a tracker transmits it's location, speed and course in a small data packet, which is then received by a nearby iGate receiving site which forwards the packet on the Internet. Systems connected to the Internet can send information on the APRS-IS without a radio transmitter, or collect and display information transmitted anywhere in the world.
FAQ · Blog · Discussion group · Linking to aprs.fi · AIS sites · Service status · Database statistics · Advertising on aprs.fi · Technical details · API · Change log · Planned changes · Credits and thanks · Terms Of Service · iPhone/iPad APRS